< < Back
Terminal Aerodrome Forecast


Current Version              Previous Versions:   1  2  3  4  5  6  7  8  9  

Terminal Aerodrome Forecast

426
FTUS44 KMOB 282300
TAFMOB
TAF
KMOB 282334Z 2900/2924 VRB03KT P6SM FEW060 SCT100 BKN250
     FM291500 15009KT P6SM FEW040 BKN150 BKN250 PROB30 2917/2923 5SM
      TSRA BKN040CB=



Latest METAR

944
SAUS80 KWBC 292200
MTRMOB
METAR KMOB 292156Z 19010KT 10SM FEW100 SCT200 27/24 A3000 RMK AO2 SLP155
T02720244


USA.gov is the U.S. government's official web portal to all federal, state and local government web resources and services.